sensor_id;sensor_type;location;lat;lon;timestamp;P1;durP1;ratioP1;P2;durP2;ratioP2
78858;SDS011;68210;52.032;4.634;2023-06-26T00:01:49;4.65;;;3.45;;
78858;SDS011;68210;52.032;4.634;2023-06-26T00:03:50;5.32;;;3.90;;
78858;SDS011;68210;52.032;4.634;2023-06-26T00:05:50;5.35;;;3.88;;
78858;SDS011;68210;52.032;4.634;2023-06-26T00:07:50;6.57;;;3.92;;
78858;SDS011;68210;52.032;4.634;2023-06-26T00:09:51;7.72;;;4.05;;
78858;SDS011;68210;52.032;4.634;2023-06-26T00:11:52;6.88;;;4.50;;
78858;SDS011;68210;52.032;4.634;2023-06-26T00:13:53;6.88;;;4.32;;
78858;SDS011;68210;52.032;4.634;2023-06-26T00:15:53;6.85;;;4.05;;
78858;SDS011;68210;52.032;4.634;2023-06-26T00:17:53;14.73;;;4.90;;
78858;SDS011;68210;52.032;4.634;2023-06-26T00:19:54;6.15;;;4.22;;
78858;SDS011;68210;52.032;4.634;2023-06-26T00:21:54;5.60;;;3.90;;
78858;SDS011;68210;52.032;4.634;2023-06-26T00:23:54;5.60;;;3.63;;
78858;SDS011;68210;52.032;4.634;2023-06-26T00:25:55;6.85;;;3.80;;
78858;SDS011;68210;52.032;4.634;2023-06-26T00:27:55;6.68;;;3.63;;
78858;SDS011;68210;52.032;4.634;2023-06-26T00:29:56;6.93;;;3.85;;
78858;SDS011;68210;52.032;4.634;2023-06-26T00:31:56;6.07;;;4.57;;
78858;SDS011;68210;52.032;4.634;2023-06-26T00:33:56;5.85;;;3.53;;
78858;SDS011;68210;52.032;4.634;2023-06-26T00:35:57;7.90;;;4.28;;
78858;SDS011;68210;52.032;4.634;2023-06-26T00:37:57;6.18;;;4.03;;
78858;SDS011;68210;52.032;4.634;2023-06-26T00:39:57;6.53;;;4.45;;
78858;SDS011;68210;52.032;4.634;2023-06-26T00:41:58;5.97;;;3.75;;
78858;SDS011;68210;52.032;4.634;2023-06-26T00:43:58;6.57;;;3.80;;
78858;SDS011;68210;52.032;4.634;2023-06-26T00:45:58;7.88;;;4.07;;
78858;SDS011;68210;52.032;4.634;2023-06-26T00:47:59;6.20;;;3.72;;
78858;SDS011;68210;52.032;4.634;2023-06-26T00:50:01;6.43;;;4.13;;
78858;SDS011;68210;52.032;4.634;2023-06-26T00:52:01;8.52;;;3.92;;
78858;SDS011;68210;52.032;4.634;2023-06-26T00:54:03;16.08;;;4.30;;
78858;SDS011;68210;52.032;4.634;2023-06-26T00:56:04;6.78;;;3.58;;
78858;SDS011;68210;52.032;4.634;2023-06-26T00:58:05;9.30;;;3.65;;
78858;SDS011;68210;52.032;4.634;2023-06-26T01:00:06;7.40;;;3.60;;
78858;SDS011;68210;52.032;4.634;2023-06-26T01:02:06;10.15;;;3.97;;
78858;SDS011;68210;52.032;4.634;2023-06-26T01:04:07;9.90;;;3.97;;
78858;SDS011;68210;52.032;4.634;2023-06-26T01:06:08;11.73;;;4.10;;
78858;SDS011;68210;52.032;4.634;2023-06-26T01:08:12;9.93;;;4.15;;
78858;SDS011;68210;52.032;4.634;2023-06-26T01:10:13;11.43;;;4.97;;
78858;SDS011;68210;52.032;4.634;2023-06-26T01:12:14;10.45;;;3.60;;
78858;SDS011;68210;52.032;4.634;2023-06-26T01:14:15;6.03;;;3.42;;
78858;SDS011;68210;52.032;4.634;2023-06-26T01:16:15;8.70;;;3.42;;
78858;SDS011;68210;52.032;4.634;2023-06-26T01:18:20;8.07;;;3.60;;
78858;SDS011;68210;52.032;4.634;2023-06-26T01:20:21;10.05;;;3.83;;
78858;SDS011;68210;52.032;4.634;2023-06-26T01:22:24;12.07;;;4.00;;
78858;SDS011;68210;52.032;4.634;2023-06-26T01:24:52;10.55;;;3.70;;
78858;SDS011;68210;52.032;4.634;2023-06-26T01:27:01;9.80;;;3.47;;
78858;SDS011;68210;52.032;4.634;2023-06-26T01:29:04;11.73;;;3.17;;
78858;SDS011;68210;52.032;4.634;2023-06-26T01:31:07;10.82;;;3.75;;
78858;SDS011;68210;52.032;4.634;2023-06-26T01:33:08;10.82;;;3.97;;
78858;SDS011;68210;52.032;4.634;2023-06-26T01:35:09;11.63;;;3.60;;
78858;SDS011;68210;52.032;4.634;2023-06-26T01:37:09;10.18;;;3.42;;
78858;SDS011;68210;52.032;4.634;2023-06-26T01:39:10;11.18;;;3.92;;
78858;SDS011;68210;52.032;4.634;2023-06-26T01:41:10;14.27;;;3.80;;
78858;SDS011;68210;52.032;4.634;2023-06-26T01:43:15;12.40;;;4.25;;
78858;SDS011;68210;52.032;4.634;2023-06-26T01:45:19;8.82;;;3.83;;
78858;SDS011;68210;52.032;4.634;2023-06-26T01:47:27;15.00;;;4.15;;
78858;SDS011;68210;52.032;4.634;2023-06-26T01:49:31;9.60;;;4.05;;
78858;SDS011;68210;52.032;4.634;2023-06-26T01:51:41;11.90;;;3.58;;
78858;SDS011;68210;52.032;4.634;2023-06-26T01:53:46;12.10;;;3.65;;
78858;SDS011;68210;52.032;4.634;2023-06-26T01:55:53;13.55;;;4.57;;
78858;SDS011;68210;52.032;4.634;2023-06-26T01:57:59;10.38;;;4.00;;
78858;SDS011;68210;52.032;4.634;2023-06-26T02:00:00;9.00;;;3.87;;
78858;SDS011;68210;52.032;4.634;2023-06-26T02:02:01;12.15;;;3.97;;
78858;SDS011;68210;52.032;4.634;2023-06-26T02:04:06;11.55;;;4.75;;
78858;SDS011;68210;52.032;4.634;2023-06-26T02:06:06;10.25;;;3.92;;
78858;SDS011;68210;52.032;4.634;2023-06-26T02:08:10;9.45;;;4.28;;
78858;SDS011;68210;52.032;4.634;2023-06-26T02:10:13;10.73;;;3.83;;
78858;SDS011;68210;52.032;4.634;2023-06-26T02:12:13;8.63;;;4.15;;
78858;SDS011;68210;52.032;4.634;2023-06-26T02:14:14;12.38;;;3.80;;
78858;SDS011;68210;52.032;4.634;2023-06-26T02:16:14;10.05;;;4.57;;
78858;SDS011;68210;52.032;4.634;2023-06-26T02:18:15;10.30;;;4.03;;
78858;SDS011;68210;52.032;4.634;2023-06-26T02:20:15;10.50;;;4.25;;
78858;SDS011;68210;52.032;4.634;2023-06-26T02:22:16;12.77;;;4.18;;
78858;SDS011;68210;52.032;4.634;2023-06-26T02:24:16;12.18;;;4.03;;
78858;SDS011;68210;52.032;4.634;2023-06-26T02:26:17;5.95;;;3.60;;
78858;SDS011;68210;52.032;4.634;2023-06-26T02:28:18;10.55;;;3.80;;
78858;SDS011;68210;52.032;4.634;2023-06-26T02:30:18;12.48;;;4.30;;
78858;SDS011;68210;52.032;4.634;2023-06-26T02:32:19;9.73;;;3.33;;
78858;SDS011;68210;52.032;4.634;2023-06-26T02:34:19;12.40;;;4.07;;
78858;SDS011;68210;52.032;4.634;2023-06-26T02:36:19;11.60;;;3.92;;
78858;SDS011;68210;52.032;4.634;2023-06-26T02:38:20;11.45;;;4.32;;
78858;SDS011;68210;52.032;4.634;2023-06-26T02:40:20;11.82;;;3.90;;
78858;SDS011;68210;52.032;4.634;2023-06-26T02:42:20;7.57;;;3.80;;
78858;SDS011;68210;52.032;4.634;2023-06-26T02:44:21;14.57;;;4.13;;
78858;SDS011;68210;52.032;4.634;2023-06-26T02:46:21;8.27;;;3.72;;
78858;SDS011;68210;52.032;4.634;2023-06-26T02:48:22;10.27;;;4.20;;
78858;SDS011;68210;52.032;4.634;2023-06-26T02:50:22;12.18;;;3.50;;
78858;SDS011;68210;52.032;4.634;2023-06-26T02:52:23;7.15;;;3.75;;
78858;SDS011;68210;52.032;4.634;2023-06-26T02:54:23;12.73;;;4.18;;
78858;SDS011;68210;52.032;4.634;2023-06-26T02:56:23;11.82;;;3.85;;
78858;SDS011;68210;52.032;4.634;2023-06-26T02:58:24;15.05;;;4.45;;
78858;SDS011;68210;52.032;4.634;2023-06-26T03:00:24;10.82;;;4.40;;
78858;SDS011;68210;52.032;4.634;2023-06-26T03:02:25;13.68;;;4.25;;
78858;SDS011;68210;52.032;4.634;2023-06-26T03:04:26;9.75;;;4.15;;
78858;SDS011;68210;52.032;4.634;2023-06-26T03:06:26;9.93;;;3.72;;
78858;SDS011;68210;52.032;4.634;2023-06-26T03:08:27;9.93;;;4.40;;
78858;SDS011;68210;52.032;4.634;2023-06-26T03:10:28;12.25;;;3.60;;
78858;SDS011;68210;52.032;4.634;2023-06-26T03:12:28;12.77;;;4.47;;
78858;SDS011;68210;52.032;4.634;2023-06-26T03:14:28;13.30;;;4.38;;
78858;SDS011;68210;52.032;4.634;2023-06-26T03:16:30;14.35;;;4.63;;
78858;SDS011;68210;52.032;4.634;2023-06-26T03:18:30;10.50;;;4.10;;
78858;SDS011;68210;52.032;4.634;2023-06-26T03:20:30;10.10;;;3.78;;
78858;SDS011;68210;52.032;4.634;2023-06-26T03:22:31;11.82;;;5.00;;
78858;SDS011;68210;52.032;4.634;2023-06-26T03:24:31;19.77;;;4.40;;
78858;SDS011;68210;52.032;4.634;2023-06-26T03:26:33;13.05;;;4.00;;
78858;SDS011;68210;52.032;4.634;2023-06-26T03:28:34;14.45;;;4.03;;
78858;SDS011;68210;52.032;4.634;2023-06-26T03:30:34;14.00;;;3.97;;
78858;SDS011;68210;52.032;4.634;2023-06-26T03:32:34;11.35;;;4.03;;
78858;SDS011;68210;52.032;4.634;2023-06-26T03:34:35;9.00;;;3.63;;
78858;SDS011;68210;52.032;4.634;2023-06-26T03:36:35;9.82;;;3.78;;
78858;SDS011;68210;52.032;4.634;2023-06-26T03:38:35;13.23;;;4.03;;
78858;SDS011;68210;52.032;4.634;2023-06-26T03:40:36;15.68;;;5.32;;
78858;SDS011;68210;52.032;4.634;2023-06-26T03:42:36;9.45;;;3.75;;
78858;SDS011;68210;52.032;4.634;2023-06-26T03:44:37;15.10;;;4.22;;
78858;SDS011;68210;52.032;4.634;2023-06-26T03:46:37;11.40;;;3.92;;
78858;SDS011;68210;52.032;4.634;2023-06-26T03:48:38;10.40;;;4.28;;
78858;SDS011;68210;52.032;4.634;2023-06-26T03:50:38;10.85;;;3.50;;
78858;SDS011;68210;52.032;4.634;2023-06-26T03:52:39;9.13;;;3.47;;
78858;SDS011;68210;52.032;4.634;2023-06-26T03:54:39;13.68;;;3.92;;
78858;SDS011;68210;52.032;4.634;2023-06-26T03:56:39;10.65;;;3.38;;
78858;SDS011;68210;52.032;4.634;2023-06-26T03:58:40;14.98;;;3.85;;
78858;SDS011;68210;52.032;4.634;2023-06-26T04:00:40;13.38;;;3.38;;
78858;SDS011;68210;52.032;4.634;2023-06-26T04:02:41;12.63;;;3.88;;
78858;SDS011;68210;52.032;4.634;2023-06-26T04:04:41;11.93;;;3.63;;
78858;SDS011;68210;52.032;4.634;2023-06-26T04:06:41;10.63;;;3.97;;
78858;SDS011;68210;52.032;4.634;2023-06-26T04:08:42;10.95;;;3.83;;
78858;SDS011;68210;52.032;4.634;2023-06-26T04:10:43;10.73;;;3.72;;
78858;SDS011;68210;52.032;4.634;2023-06-26T04:12:45;12.52;;;3.95;;
78858;SDS011;68210;52.032;4.634;2023-06-26T04:14:45;10.02;;;3.25;;
78858;SDS011;68210;52.032;4.634;2023-06-26T04:16:46;10.70;;;3.50;;
78858;SDS011;68210;52.032;4.634;2023-06-26T04:18:46;13.48;;;3.78;;
78858;SDS011;68210;52.032;4.634;2023-06-26T04:23:08;14.15;;;3.92;;
78858;SDS011;68210;52.032;4.634;2023-06-26T04:25:09;9.18;;;3.10;;
78858;SDS011;68210;52.032;4.634;2023-06-26T04:27:11;11.90;;;4.25;;
78858;SDS011;68210;52.032;4.634;2023-06-26T04:29:13;9.05;;;3.42;;
78858;SDS011;68210;52.032;4.634;2023-06-26T04:31:14;7.97;;;3.55;;
78858;SDS011;68210;52.032;4.634;2023-06-26T04:33:14;11.73;;;4.07;;
78858;SDS011;68210;52.032;4.634;2023-06-26T04:35:15;11.88;;;3.42;;
78858;SDS011;68210;52.032;4.634;2023-06-26T04:37:15;11.13;;;3.58;;
78858;SDS011;68210;52.032;4.634;2023-06-26T04:39:17;11.70;;;3.33;;
78858;SDS011;68210;52.032;4.634;2023-06-26T04:41:17;8.27;;;2.97;;
78858;SDS011;68210;52.032;4.634;2023-06-26T04:43:17;10.02;;;3.45;;
78858;SDS011;68210;52.032;4.634;2023-06-26T04:45:18;9.60;;;3.30;;
78858;SDS011;68210;52.032;4.634;2023-06-26T04:47:18;10.57;;;3.15;;
78858;SDS011;68210;52.032;4.634;2023-06-26T04:49:19;7.45;;;2.90;;
78858;SDS011;68210;52.032;4.634;2023-06-26T04:51:19;8.82;;;2.75;;
78858;SDS011;68210;52.032;4.634;2023-06-26T04:53:21;12.52;;;3.42;;
78858;SDS011;68210;52.032;4.634;2023-06-26T04:55:25;6.88;;;2.55;;
78858;SDS011;68210;52.032;4.634;2023-06-26T04:57:26;7.05;;;2.40;;
78858;SDS011;68210;52.032;4.634;2023-06-26T04:59:27;7.82;;;2.88;;
78858;SDS011;68210;52.032;4.634;2023-06-26T05:01:27;6.72;;;2.90;;
78858;SDS011;68210;52.032;4.634;2023-06-26T05:03:32;4.95;;;2.30;;
78858;SDS011;68210;52.032;4.634;2023-06-26T05:05:32;7.40;;;2.40;;
78858;SDS011;68210;52.032;4.634;2023-06-26T05:07:33;5.68;;;2.03;;
78858;SDS011;68210;52.032;4.634;2023-06-26T05:09:33;4.72;;;2.08;;
78858;SDS011;68210;52.032;4.634;2023-06-26T05:11:34;8.18;;;2.20;;
78858;SDS011;68210;52.032;4.634;2023-06-26T05:13:34;5.13;;;2.35;;
78858;SDS011;68210;52.032;4.634;2023-06-26T05:15:34;5.45;;;2.15;;
78858;SDS011;68210;52.032;4.634;2023-06-26T05:17:35;8.25;;;2.28;;
78858;SDS011;68210;52.032;4.634;2023-06-26T05:19:35;4.88;;;2.28;;
78858;SDS011;68210;52.032;4.634;2023-06-26T05:21:35;5.28;;;2.70;;
78858;SDS011;68210;52.032;4.634;2023-06-26T05:23:36;5.75;;;2.45;;
78858;SDS011;68210;52.032;4.634;2023-06-26T05:25:37;7.53;;;2.53;;
78858;SDS011;68210;52.032;4.634;2023-06-26T05:27:37;5.68;;;2.28;;
78858;SDS011;68210;52.032;4.634;2023-06-26T05:29:38;5.78;;;2.47;;
78858;SDS011;68210;52.032;4.634;2023-06-26T05:31:41;4.60;;;2.30;;
78858;SDS011;68210;52.032;4.634;2023-06-26T05:33:45;6.25;;;2.47;;
78858;SDS011;68210;52.032;4.634;2023-06-26T05:35:46;4.25;;;2.20;;
78858;SDS011;68210;52.032;4.634;2023-06-26T05:37:49;5.45;;;2.55;;
78858;SDS011;68210;52.032;4.634;2023-06-26T05:39:50;6.43;;;2.45;;
78858;SDS011;68210;52.032;4.634;2023-06-26T05:41:51;5.13;;;2.33;;
78858;SDS011;68210;52.032;4.634;2023-06-26T05:43:51;5.30;;;2.25;;
78858;SDS011;68210;52.032;4.634;2023-06-26T05:45:54;6.03;;;2.55;;
78858;SDS011;68210;52.032;4.634;2023-06-26T05:47:56;8.50;;;3.08;;
78858;SDS011;68210;52.032;4.634;2023-06-26T05:49:56;4.70;;;2.63;;
78858;SDS011;68210;52.032;4.634;2023-06-26T05:51:57;7.57;;;2.45;;
78858;SDS011;68210;52.032;4.634;2023-06-26T05:53:58;7.07;;;2.33;;
78858;SDS011;68210;52.032;4.634;2023-06-26T05:55:58;5.20;;;2.28;;
78858;SDS011;68210;52.032;4.634;2023-06-26T05:57:59;7.50;;;2.35;;
78858;SDS011;68210;52.032;4.634;2023-06-26T06:00:01;7.97;;;2.30;;
78858;SDS011;68210;52.032;4.634;2023-06-26T06:02:03;4.28;;;1.77;;
78858;SDS011;68210;52.032;4.634;2023-06-26T06:04:03;4.57;;;1.73;;
78858;SDS011;68210;52.032;4.634;2023-06-26T06:06:04;6.13;;;1.90;;
78858;SDS011;68210;52.032;4.634;2023-06-26T06:08:04;2.90;;;1.40;;
78858;SDS011;68210;52.032;4.634;2023-06-26T06:10:05;4.97;;;1.75;;
78858;SDS011;68210;52.032;4.634;2023-06-26T06:12:05;8.48;;;2.38;;
78858;SDS011;68210;52.032;4.634;2023-06-26T06:14:06;4.90;;;1.42;;
78858;SDS011;68210;52.032;4.634;2023-06-26T06:16:06;2.95;;;1.40;;
78858;SDS011;68210;52.032;4.634;2023-06-26T06:18:07;5.60;;;1.40;;
78858;SDS011;68210;52.032;4.634;2023-06-26T06:20:07;6.30;;;1.23;;
78858;SDS011;68210;52.032;4.634;2023-06-26T06:22:08;7.85;;;1.70;;
78858;SDS011;68210;52.032;4.634;2023-06-26T06:24:08;3.28;;;1.15;;
78858;SDS011;68210;52.032;4.634;2023-06-26T06:26:09;5.63;;;1.30;;
78858;SDS011;68210;52.032;4.634;2023-06-26T06:28:10;5.20;;;1.42;;
78858;SDS011;68210;52.032;4.634;2023-06-26T06:30:10;3.30;;;1.20;;
78858;SDS011;68210;52.032;4.634;2023-06-26T06:32:11;4.43;;;1.33;;
78858;SDS011;68210;52.032;4.634;2023-06-26T06:34:12;5.30;;;1.30;;
78858;SDS011;68210;52.032;4.634;2023-06-26T06:36:13;12.00;;;1.90;;
78858;SDS011;68210;52.032;4.634;2023-06-26T06:38:13;4.05;;;1.40;;
78858;SDS011;68210;52.032;4.634;2023-06-26T06:40:13;5.75;;;1.65;;
78858;SDS011;68210;52.032;4.634;2023-06-26T06:42:14;4.95;;;1.23;;
78858;SDS011;68210;52.032;4.634;2023-06-26T06:44:14;5.38;;;1.70;;
78858;SDS011;68210;52.032;4.634;2023-06-26T06:46:14;6.40;;;1.83;;
78858;SDS011;68210;52.032;4.634;2023-06-26T06:48:15;5.88;;;1.30;;
78858;SDS011;68210;52.032;4.634;2023-06-26T06:50:15;5.43;;;1.30;;
78858;SDS011;68210;52.032;4.634;2023-06-26T06:52:17;2.83;;;1.40;;
78858;SDS011;68210;52.032;4.634;2023-06-26T06:54:18;4.13;;;1.25;;
78858;SDS011;68210;52.032;4.634;2023-06-26T06:56:19;4.63;;;1.50;;
78858;SDS011;68210;52.032;4.634;2023-06-26T06:58:19;4.10;;;1.40;;
78858;SDS011;68210;52.032;4.634;2023-06-26T07:00:20;4.35;;;1.50;;
78858;SDS011;68210;52.032;4.634;2023-06-26T07:02:20;5.85;;;1.55;;
78858;SDS011;68210;52.032;4.634;2023-06-26T07:04:21;4.88;;;1.48;;
78858;SDS011;68210;52.032;4.634;2023-06-26T07:06:21;5.80;;;1.40;;
78858;SDS011;68210;52.032;4.634;2023-06-26T07:08:21;3.78;;;1.23;;
78858;SDS011;68210;52.032;4.634;2023-06-26T07:10:22;5.72;;;1.60;;
78858;SDS011;68210;52.032;4.634;2023-06-26T07:12:22;8.65;;;1.48;;
78858;SDS011;68210;52.032;4.634;2023-06-26T07:14:23;6.40;;;1.52;;
78858;SDS011;68210;52.032;4.634;2023-06-26T07:16:23;4.85;;;1.48;;
78858;SDS011;68210;52.032;4.634;2023-06-26T07:18:23;4.57;;;1.50;;
78858;SDS011;68210;52.032;4.634;2023-06-26T07:20:24;3.92;;;1.40;;
78858;SDS011;68210;52.032;4.634;2023-06-26T07:22:24;4.65;;;1.40;;
78858;SDS011;68210;52.032;4.634;2023-06-26T07:24:24;3.55;;;1.60;;
78858;SDS011;68210;52.032;4.634;2023-06-26T07:26:25;4.65;;;1.55;;
78858;SDS011;68210;52.032;4.634;2023-06-26T07:28:25;5.28;;;1.35;;
78858;SDS011;68210;52.032;4.634;2023-06-26T07:30:26;5.70;;;1.50;;
78858;SDS011;68210;52.032;4.634;2023-06-26T07:32:26;5.60;;;1.55;;
78858;SDS011;68210;52.032;4.634;2023-06-26T07:34:26;7.80;;;1.50;;
78858;SDS011;68210;52.032;4.634;2023-06-26T07:36:27;5.18;;;1.48;;
78858;SDS011;68210;52.032;4.634;2023-06-26T07:38:27;6.15;;;1.70;;
78858;SDS011;68210;52.032;4.634;2023-06-26T07:40:27;9.15;;;1.60;;
78858;SDS011;68210;52.032;4.634;2023-06-26T07:42:28;4.97;;;1.50;;
78858;SDS011;68210;52.032;4.634;2023-06-26T07:44:28;5.18;;;1.60;;
78858;SDS011;68210;52.032;4.634;2023-06-26T07:46:29;8.45;;;1.63;;
78858;SDS011;68210;52.032;4.634;2023-06-26T07:48:29;3.88;;;1.30;;
78858;SDS011;68210;52.032;4.634;2023-06-26T07:50:30;5.05;;;1.67;;
78858;SDS011;68210;52.032;4.634;2023-06-26T07:52:30;6.80;;;1.67;;
78858;SDS011;68210;52.032;4.634;2023-06-26T07:54:30;4.10;;;1.05;;
78858;SDS011;68210;52.032;4.634;2023-06-26T07:56:31;6.35;;;1.63;;
78858;SDS011;68210;52.032;4.634;2023-06-26T07:58:35;5.65;;;1.70;;
78858;SDS011;68210;52.032;4.634;2023-06-26T08:00:35;4.85;;;1.60;;
78858;SDS011;68210;52.032;4.634;2023-06-26T08:02:35;4.07;;;1.20;;
78858;SDS011;68210;52.032;4.634;2023-06-26T08:04:36;5.50;;;1.73;;
78858;SDS011;68210;52.032;4.634;2023-06-26T08:06:36;4.88;;;1.40;;
78858;SDS011;68210;52.032;4.634;2023-06-26T08:08:40;4.22;;;1.60;;
78858;SDS011;68210;52.032;4.634;2023-06-26T08:10:40;5.20;;;1.33;;
78858;SDS011;68210;52.032;4.634;2023-06-26T08:12:41;8.00;;;1.85;;
78858;SDS011;68210;52.032;4.634;2023-06-26T08:14:44;4.38;;;1.70;;
78858;SDS011;68210;52.032;4.634;2023-06-26T08:16:45;5.45;;;1.70;;
78858;SDS011;68210;52.032;4.634;2023-06-26T08:18:46;6.32;;;1.80;;
78858;SDS011;68210;52.032;4.634;2023-06-26T08:20:47;5.63;;;1.50;;
78858;SDS011;68210;52.032;4.634;2023-06-26T08:22:47;6.38;;;1.45;;
78858;SDS011;68210;52.032;4.634;2023-06-26T08:24:49;4.30;;;1.38;;
78858;SDS011;68210;52.032;4.634;2023-06-26T08:26:49;4.60;;;1.40;;
78858;SDS011;68210;52.032;4.634;2023-06-26T08:28:49;8.65;;;1.40;;
78858;SDS011;68210;52.032;4.634;2023-06-26T08:30:50;3.97;;;1.48;;
78858;SDS011;68210;52.032;4.634;2023-06-26T08:32:50;5.40;;;1.48;;
78858;SDS011;68210;52.032;4.634;2023-06-26T08:34:51;5.05;;;1.40;;
78858;SDS011;68210;52.032;4.634;2023-06-26T08:36:52;4.57;;;1.42;;
78858;SDS011;68210;52.032;4.634;2023-06-26T08:38:53;3.05;;;1.40;;
78858;SDS011;68210;52.032;4.634;2023-06-26T08:40:53;4.82;;;1.70;;
78858;SDS011;68210;52.032;4.634;2023-06-26T08:42:54;3.55;;;1.60;;
78858;SDS011;68210;52.032;4.634;2023-06-26T08:44:54;4.68;;;1.27;;
78858;SDS011;68210;52.032;4.634;2023-06-26T08:46:55;5.50;;;1.50;;
78858;SDS011;68210;52.032;4.634;2023-06-26T08:48:56;4.80;;;1.40;;
78858;SDS011;68210;52.032;4.634;2023-06-26T08:51:01;5.63;;;1.50;;
78858;SDS011;68210;52.032;4.634;2023-06-26T08:55:20;3.03;;;1.42;;
78858;SDS011;68210;52.032;4.634;2023-06-26T08:57:25;6.13;;;2.03;;
78858;SDS011;68210;52.032;4.634;2023-06-26T09:01:27;3.55;;;1.38;;
78858;SDS011;68210;52.032;4.634;2023-06-26T09:03:28;5.38;;;1.25;;
78858;SDS011;68210;52.032;4.634;2023-06-26T09:05:28;5.43;;;1.52;;
78858;SDS011;68210;52.032;4.634;2023-06-26T09:07:29;5.68;;;1.55;;
78858;SDS011;68210;52.032;4.634;2023-06-26T09:09:29;4.72;;;1.40;;
78858;SDS011;68210;52.032;4.634;2023-06-26T09:11:30;3.45;;;1.52;;
78858;SDS011;68210;52.032;4.634;2023-06-26T09:13:30;5.55;;;1.88;;
78858;SDS011;68210;52.032;4.634;2023-06-26T09:15:43;5.00;;;1.73;;
78858;SDS011;68210;52.032;4.634;2023-06-26T09:17:45;3.22;;;1.05;;
78858;SDS011;68210;52.032;4.634;2023-06-26T09:19:47;4.00;;;1.40;;
78858;SDS011;68210;52.032;4.634;2023-06-26T09:21:49;5.85;;;1.20;;
78858;SDS011;68210;52.032;4.634;2023-06-26T09:23:50;2.40;;;1.30;;
78858;SDS011;68210;52.032;4.634;2023-06-26T09:25:51;9.32;;;1.58;;
78858;SDS011;68210;52.032;4.634;2023-06-26T09:27:52;4.30;;;1.42;;
78858;SDS011;68210;52.032;4.634;2023-06-26T09:29:53;5.65;;;1.60;;
78858;SDS011;68210;52.032;4.634;2023-06-26T09:31:53;3.63;;;1.20;;
78858;SDS011;68210;52.032;4.634;2023-06-26T09:33:59;4.90;;;1.70;;
78858;SDS011;68210;52.032;4.634;2023-06-26T09:36:00;5.05;;;1.60;;
78858;SDS011;68210;52.032;4.634;2023-06-26T09:38:00;4.55;;;1.65;;
78858;SDS011;68210;52.032;4.634;2023-06-26T09:40:02;4.65;;;2.15;;
78858;SDS011;68210;52.032;4.634;2023-06-26T09:42:03;5.20;;;1.30;;
78858;SDS011;68210;52.032;4.634;2023-06-26T09:44:05;3.65;;;1.23;;
78858;SDS011;68210;52.032;4.634;2023-06-26T09:46:05;7.30;;;1.52;;
78858;SDS011;68210;52.032;4.634;2023-06-26T09:48:06;9.43;;;1.80;;
78858;SDS011;68210;52.032;4.634;2023-06-26T09:52:20;6.57;;;1.70;;
78858;SDS011;68210;52.032;4.634;2023-06-26T09:54:21;8.63;;;1.73;;
78858;SDS011;68210;52.032;4.634;2023-06-26T09:56:23;4.22;;;1.25;;
78858;SDS011;68210;52.032;4.634;2023-06-26T09:58:24;4.30;;;1.50;;
78858;SDS011;68210;52.032;4.634;2023-06-26T10:00:25;3.67;;;1.60;;
78858;SDS011;68210;52.032;4.634;2023-06-26T10:02:26;4.60;;;1.85;;
78858;SDS011;68210;52.032;4.634;2023-06-26T10:04:26;6.47;;;1.77;;
78858;SDS011;68210;52.032;4.634;2023-06-26T10:06:27;2.88;;;1.50;;
78858;SDS011;68210;52.032;4.634;2023-06-26T10:08:31;6.97;;;2.00;;
78858;SDS011;68210;52.032;4.634;2023-06-26T10:10:37;4.40;;;1.75;;
78858;SDS011;68210;52.032;4.634;2023-06-26T10:12:38;7.70;;;1.75;;
78858;SDS011;68210;52.032;4.634;2023-06-26T10:14:38;4.45;;;1.60;;
78858;SDS011;68210;52.032;4.634;2023-06-26T10:16:42;3.90;;;1.50;;
78858;SDS011;68210;52.032;4.634;2023-06-26T10:18:44;3.50;;;1.75;;
78858;SDS011;68210;52.032;4.634;2023-06-26T10:20:46;4.57;;;1.33;;
78858;SDS011;68210;52.032;4.634;2023-06-26T10:22:48;4.10;;;1.40;;
78858;SDS011;68210;52.032;4.634;2023-06-26T10:24:49;4.75;;;1.77;;
78858;SDS011;68210;52.032;4.634;2023-06-26T10:26:52;3.70;;;1.50;;
78858;SDS011;68210;52.032;4.634;2023-06-26T10:28:58;6.78;;;1.92;;
78858;SDS011;68210;52.032;4.634;2023-06-26T10:31:00;4.22;;;1.50;;
78858;SDS011;68210;52.032;4.634;2023-06-26T10:33:03;5.50;;;1.73;;
78858;SDS011;68210;52.032;4.634;2023-06-26T10:35:05;4.88;;;1.55;;
78858;SDS011;68210;52.032;4.634;2023-06-26T10:37:06;7.18;;;1.50;;
78858;SDS011;68210;52.032;4.634;2023-06-26T10:39:07;4.20;;;1.45;;
78858;SDS011;68210;52.032;4.634;2023-06-26T10:41:10;5.55;;;1.80;;
78858;SDS011;68210;52.032;4.634;2023-06-26T10:43:12;6.55;;;1.27;;
78858;SDS011;68210;52.032;4.634;2023-06-26T10:45:14;3.53;;;1.30;;
78858;SDS011;68210;52.032;4.634;2023-06-26T10:47:29;4.18;;;2.38;;
78858;SDS011;68210;52.032;4.634;2023-06-26T10:49:31;3.72;;;1.30;;
78858;SDS011;68210;52.032;4.634;2023-06-26T10:51:32;2.13;;;1.13;;
78858;SDS011;68210;52.032;4.634;2023-06-26T10:53:32;3.40;;;1.00;;
78858;SDS011;68210;52.032;4.634;2023-06-26T10:55:36;4.40;;;1.13;;
78858;SDS011;68210;52.032;4.634;2023-06-26T10:57:44;5.65;;;1.60;;
78858;SDS011;68210;52.032;4.634;2023-06-26T10:59:47;5.60;;;1.33;;
78858;SDS011;68210;52.032;4.634;2023-06-26T11:02:00;5.47;;;1.30;;
78858;SDS011;68210;52.032;4.634;2023-06-26T11:04:04;2.35;;;1.20;;
78858;SDS011;68210;52.032;4.634;2023-06-26T11:06:12;3.63;;;1.00;;
78858;SDS011;68210;52.032;4.634;2023-06-26T11:08:21;3.40;;;0.93;;
78858;SDS011;68210;52.032;4.634;2023-06-26T11:10:50;3.55;;;1.00;;
78858;SDS011;68210;52.032;4.634;2023-06-26T11:12:52;5.93;;;0.85;;
78858;SDS011;68210;52.032;4.634;2023-06-26T11:14:54;3.10;;;1.30;;
78858;SDS011;68210;52.032;4.634;2023-06-26T11:16:55;5.90;;;1.40;;
78858;SDS011;68210;52.032;4.634;2023-06-26T11:18:57;4.60;;;1.20;;
78858;SDS011;68210;52.032;4.634;2023-06-26T11:21:07;4.03;;;0.98;;
78858;SDS011;68210;52.032;4.634;2023-06-26T11:23:09;2.90;;;1.25;;
78858;SDS011;68210;52.032;4.634;2023-06-26T11:25:10;4.63;;;1.08;;
78858;SDS011;68210;52.032;4.634;2023-06-26T11:27:10;4.00;;;1.23;;
78858;SDS011;68210;52.032;4.634;2023-06-26T11:29:11;4.38;;;1.02;;
78858;SDS011;68210;52.032;4.634;2023-06-26T11:31:23;3.10;;;1.25;;
78858;SDS011;68210;52.032;4.634;2023-06-26T11:33:27;4.57;;;0.85;;
78858;SDS011;68210;52.032;4.634;2023-06-26T11:35:27;5.50;;;1.20;;
78858;SDS011;68210;52.032;4.634;2023-06-26T11:37:31;2.13;;;1.00;;
78858;SDS011;68210;52.032;4.634;2023-06-26T11:39:32;6.97;;;1.63;;
78858;SDS011;68210;52.032;4.634;2023-06-26T11:41:33;7.05;;;1.55;;
78858;SDS011;68210;52.032;4.634;2023-06-26T11:43:35;3.13;;;1.10;;
78858;SDS011;68210;52.032;4.634;2023-06-26T11:45:35;3.35;;;1.20;;
78858;SDS011;68210;52.032;4.634;2023-06-26T11:47:37;2.00;;;0.90;;
78858;SDS011;68210;52.032;4.634;2023-06-26T11:49:39;2.13;;;1.17;;
78858;SDS011;68210;52.032;4.634;2023-06-26T11:51:42;2.92;;;1.10;;
78858;SDS011;68210;52.032;4.634;2023-06-26T11:53:43;4.05;;;1.00;;
78858;SDS011;68210;52.032;4.634;2023-06-26T11:55:44;3.78;;;1.10;;
78858;SDS011;68210;52.032;4.634;2023-06-26T11:58:03;4.40;;;1.10;;
78858;SDS011;68210;52.032;4.634;2023-06-26T12:00:10;3.55;;;1.08;;
78858;SDS011;68210;52.032;4.634;2023-06-26T12:02:14;3.95;;;1.02;;
78858;SDS011;68210;52.032;4.634;2023-06-26T12:04:16;2.95;;;0.90;;
78858;SDS011;68210;52.032;4.634;2023-06-26T12:08:17;2.85;;;1.10;;
78858;SDS011;68210;52.032;4.634;2023-06-26T12:10:18;2.95;;;1.30;;
78858;SDS011;68210;52.032;4.634;2023-06-26T12:12:19;1.95;;;0.90;;
78858;SDS011;68210;52.032;4.634;2023-06-26T12:14:20;4.32;;;1.00;;
78858;SDS011;68210;52.032;4.634;2023-06-26T12:18:22;3.43;;;0.97;;
78858;SDS011;68210;52.032;4.634;2023-06-26T12:20:25;4.03;;;0.88;;
78858;SDS011;68210;52.032;4.634;2023-06-26T12:22:33;4.70;;;1.20;;
78858;SDS011;68210;52.032;4.634;2023-06-26T12:24:37;3.80;;;1.10;;